createdAt,value
2023-05-19T00:02:11.541Z,97729.31
2023-05-19T00:04:41.630Z,97728.53
2023-05-19T00:07:10.184Z,97725.84
2023-05-19T00:09:38.653Z,97727.66
2023-05-19T00:12:07.526Z,97726.78
2023-05-19T00:14:36.133Z,97719.72
2023-05-19T00:17:04.764Z,97721.53
2023-05-19T00:19:33.397Z,97729.56
2023-05-19T00:22:02.800Z,97716.16
2023-05-19T00:24:30.846Z,97713.47
2023-05-19T00:26:58.850Z,97715.19
2023-05-19T00:29:26.905Z,97716.94
2023-05-19T00:31:54.962Z,97716.94
2023-05-19T00:34:23.097Z,97714.34
2023-05-19T00:36:51.907Z,97704.56
2023-05-19T00:39:21.286Z,97709.91
2023-05-19T00:41:49.326Z,97708.97
2023-05-19T00:44:17.384Z,97708.09
2023-05-19T00:46:45.535Z,97706.47
2023-05-19T00:49:13.607Z,97708.25
2023-05-19T00:51:42.095Z,97706.47
2023-05-19T00:54:10.261Z,97708.22
2023-05-19T00:56:40.194Z,97713.56
2023-05-19T00:59:08.246Z,97706.47
2023-05-19T01:01:36.701Z,97701.09
2023-05-19T01:04:05.512Z,97693.03
2023-05-19T01:06:33.678Z,97692.94
2023-05-19T01:09:01.740Z,97695.72
2023-05-19T01:11:29.841Z,97692.16
2023-05-19T01:14:00.177Z,97695.72
2023-05-19T01:16:32.215Z,97702.97
2023-05-19T01:19:02.986Z,97695.78
2023-05-19T01:21:57.948Z,97700.38
2023-05-19T01:24:53.469Z,97700.28
2023-05-19T01:27:32.659Z,97698.56
2023-05-19T01:30:30.165Z,97704.88
2023-05-19T01:33:00.387Z,97707.56
2023-05-19T01:35:29.076Z,97700.47
2023-05-19T01:37:59.792Z,97695.00
2023-05-19T01:40:28.101Z,97694.13
2023-05-19T01:42:57.873Z,97701.31
2023-05-19T01:45:26.914Z,97704.00
2023-05-19T01:47:57.686Z,97695.09
2023-05-19T01:50:25.802Z,97707.66
2023-05-19T01:52:53.784Z,97697.78
2023-05-19T01:55:23.350Z,97698.63
2023-05-19T01:57:57.553Z,97704.00
2023-05-19T02:00:28.050Z,97704.00
2023-05-19T02:03:03.115Z,97702.19
2023-05-19T02:05:36.141Z,97695.88
2023-05-19T02:08:07.737Z,97699.41
2023-05-19T02:10:37.311Z,97703.06
2023-05-19T02:13:06.390Z,97693.25
2023-05-19T02:15:38.678Z,97694.13
2023-05-19T02:18:09.493Z,97692.31
2023-05-19T02:20:37.611Z,97692.41
2023-05-19T02:23:07.940Z,97689.66
2023-05-19T02:25:35.987Z,97681.69
2023-05-19T02:28:04.022Z,97687.13
2023-05-19T02:30:32.802Z,97688.09
2023-05-19T02:33:01.690Z,97686.28
2023-05-19T02:35:31.087Z,97688.09
2023-05-19T02:37:59.163Z,97688.00
2023-05-19T02:40:27.161Z,97679.06
2023-05-19T02:42:56.253Z,97687.13
2023-05-19T02:45:24.359Z,97675.53
2023-05-19T02:47:52.431Z,97679.00
2023-05-19T02:50:20.534Z,97680.81
2023-05-19T02:52:49.985Z,97679.00
2023-05-19T02:55:18.185Z,97677.25
2023-05-19T02:57:46.213Z,97676.31
2023-05-19T03:00:15.167Z,97673.69
2023-05-19T03:02:44.112Z,97678.13
2023-05-19T03:05:12.320Z,97679.94
2023-05-19T03:07:40.397Z,97685.22
2023-05-19T03:10:10.541Z,97676.31
2023-05-19T03:12:38.621Z,97676.31
2023-05-19T03:15:07.774Z,97670.09
2023-05-19T03:17:36.525Z,97674.56
2023-05-19T03:20:05.844Z,97680.03
2023-05-19T03:22:34.154Z,97682.72
2023-05-19T03:25:02.490Z,97683.59
2023-05-19T03:27:32.037Z,97688.00
2023-05-19T03:30:00.061Z,97686.28
2023-05-19T03:32:28.399Z,97681.75
2023-05-19T03:34:56.523Z,97684.44
2023-05-19T03:37:24.652Z,97673.81
2023-05-19T03:39:52.744Z,97673.69
2023-05-19T03:42:20.781Z,97672.88
2023-05-19T03:44:51.656Z,97679.06
2023-05-19T03:47:19.861Z,97680.97
2023-05-19T03:50:19.930Z,97675.59
2023-05-19T03:52:58.147Z,97680.13
2023-05-19T03:55:31.974Z,97683.75
2023-05-19T03:58:00.031Z,97687.41
2023-05-19T04:00:29.457Z,97675.69
2023-05-19T04:02:57.692Z,97684.44
2023-05-19T04:05:25.758Z,97687.91
2023-05-19T04:07:55.175Z,97686.00
2023-05-19T04:10:24.665Z,97686.19
2023-05-19T04:12:52.796Z,97693.13
2023-05-19T04:15:21.420Z,97690.16
2023-05-19T04:17:50.916Z,97693.03
2023-05-19T04:20:19.742Z,97697.59
2023-05-19T04:22:47.803Z,97702.19
2023-05-19T04:25:15.881Z,97705.88
2023-05-19T04:27:44.017Z,97710.56
2023-05-19T04:30:12.752Z,97707.09
2023-05-19T04:32:41.462Z,97708.13
2023-05-19T04:35:11.233Z,97705.53
2023-05-19T04:37:39.245Z,97710.91
2023-05-19T04:40:11.283Z,97703.44
2023-05-19T04:42:41.489Z,97710.28
2023-05-19T04:45:12.445Z,97712.72
2023-05-19T04:47:42.935Z,97713.94
2023-05-19T04:50:13.007Z,97716.94
2023-05-19T04:52:41.824Z,97719.53
2023-05-19T04:55:11.433Z,97725.44
2023-05-19T04:57:39.870Z,97726.91
2023-05-19T05:00:12.418Z,97728.38
2023-05-19T05:02:51.185Z,97737.94
2023-05-19T05:05:23.285Z,97735.06
2023-05-19T05:07:54.166Z,97736.72
2023-05-19T05:10:24.278Z,97734.72
2023-05-19T05:12:53.191Z,97742.63
2023-05-19T05:15:22.797Z,97740.78
2023-05-19T05:17:52.123Z,97741.56
2023-05-19T05:20:21.180Z,97741.50
2023-05-19T05:22:51.287Z,97739.66
2023-05-19T05:25:21.040Z,97740.41
2023-05-19T05:27:50.351Z,97746.84
2023-05-19T05:30:19.386Z,97754.53
2023-05-19T05:32:48.113Z,97753.06
2023-05-19T05:35:30.908Z,97751.84
2023-05-19T05:38:02.328Z,97749.88
2023-05-19T05:40:30.500Z,97752.38
2023-05-19T05:42:59.266Z,97759.41
2023-05-19T05:45:30.274Z,97754.81
2023-05-19T05:47:59.997Z,97760.13
2023-05-19T05:50:28.809Z,97758.22
2023-05-19T05:52:57.109Z,97760.91
2023-05-19T05:55:31.191Z,97756.03
2023-05-19T05:58:02.344Z,97767.25
2023-05-19T06:00:30.694Z,97770.44
2023-05-19T06:02:59.225Z,97769.72
2023-05-19T06:05:27.982Z,97770.00
2023-05-19T06:07:57.915Z,97770.16
2023-05-19T06:10:29.425Z,97770.84
2023-05-19T06:12:57.569Z,97772.25
2023-05-19T06:15:26.937Z,97779.00
2023-05-19T06:18:05.576Z,97782.41
2023-05-19T06:20:34.026Z,97778.66
2023-05-19T06:23:02.882Z,97783.00
2023-05-19T06:25:32.742Z,97787.34
2023-05-19T06:28:01.342Z,97790.81
2023-05-19T06:30:29.418Z,97789.00
2023-05-19T06:33:05.822Z,97785.34
2023-05-19T06:35:34.226Z,97783.44
2023-05-19T06:38:02.364Z,97779.84
2023-05-19T06:40:32.506Z,97786.94
2023-05-19T06:43:00.768Z,97782.34
2023-05-19T06:46:01.177Z,97785.81
2023-05-19T06:48:30.528Z,97789.28
2023-05-19T06:50:59.721Z,97789.28
2023-05-19T06:53:28.629Z,97793.72
2023-05-19T06:56:00.159Z,97791.88
2023-05-19T06:58:32.207Z,97793.53
2023-05-19T07:01:02.240Z,97785.47
2023-05-19T07:03:36.118Z,97789.88
2023-05-19T07:06:07.743Z,97798.81
2023-05-19T07:08:37.314Z,97798.72
2023-05-19T07:11:08.437Z,97794.22
2023-05-19T07:13:36.637Z,97791.53
2023-05-19T07:16:05.950Z,97788.75
2023-05-19T07:18:35.825Z,97788.75
2023-05-19T07:21:03.945Z,97793.19
2023-05-19T07:23:32.687Z,97781.59
2023-05-19T07:26:00.826Z,97780.66
2023-05-19T07:28:30.210Z,97785.03
2023-05-19T07:30:58.256Z,97784.09
2023-05-19T07:33:27.029Z,97783.13
2023-05-19T07:35:55.084Z,97782.22
2023-05-19T07:38:23.205Z,97785.72
2023-05-19T07:40:51.306Z,97786.59
2023-05-19T07:43:19.449Z,97788.75
2023-05-19T07:45:48.892Z,97786.25
2023-05-19T07:48:18.783Z,97779.00
2023-05-19T07:50:46.945Z,97778.81
2023-05-19T07:53:15.012Z,97777.88
2023-05-19T07:55:43.026Z,97775.97
2023-05-19T07:58:11.191Z,97775.88
2023-05-19T08:00:39.229Z,97770.41
2023-05-19T08:03:09.107Z,97770.41
2023-05-19T08:05:37.355Z,97769.47
2023-05-19T08:08:05.656Z,97767.66
2023-05-19T08:10:33.951Z,97769.38
2023-05-19T08:13:02.292Z,97761.31
2023-05-19T08:15:30.396Z,97755.84
2023-05-19T08:17:58.636Z,97761.16
2023-05-19T08:20:28.125Z,97767.38
2023-05-19T08:22:56.371Z,97759.25
2023-05-19T08:25:24.475Z,97761.41
2023-05-19T08:27:52.546Z,97764.59
2023-05-19T08:30:20.736Z,97750.69
2023-05-19T08:32:48.956Z,97741.09
2023-05-19T08:35:17.160Z,97752.75
2023-05-19T08:37:46.617Z,97746.53
2023-05-19T08:40:18.672Z,97745.75
2023-05-19T08:42:46.817Z,97745.88
2023-05-19T08:45:14.923Z,97745.09
2023-05-19T08:47:43.264Z,97744.31
2023-05-19T08:50:11.593Z,97736.47
2023-05-19T08:52:47.847Z,97736.53
2023-05-19T08:55:26.000Z,97737.59
2023-05-19T08:57:54.314Z,97737.66
2023-05-19T09:00:22.729Z,97743.09
2023-05-19T09:03:01.020Z,97744.06
2023-05-19T09:05:34.702Z,97742.41
2023-05-19T09:08:03.207Z,97744.13
2023-05-19T09:10:32.671Z,97741.13
2023-05-19T09:13:00.720Z,97741.66
2023-05-19T09:15:28.956Z,97742.31
2023-05-19T09:18:07.152Z,97739.75
2023-05-19T09:20:38.345Z,97742.53
2023-05-19T09:23:06.479Z,97740.53
2023-05-19T09:25:36.463Z,97744.78
2023-05-19T09:28:04.519Z,97745.47
2023-05-19T09:30:32.600Z,97743.47
2023-05-19T09:33:01.034Z,97744.19
2023-05-19T09:35:29.173Z,97744.25
2023-05-19T09:37:57.223Z,97737.09
2023-05-19T09:40:26.097Z,97735.19
2023-05-19T09:42:55.800Z,97739.53
2023-05-19T09:45:24.064Z,97740.41
2023-05-19T09:47:52.337Z,97742.00
2023-05-19T09:50:20.435Z,97738.38
2023-05-19T09:52:48.489Z,97739.16
2023-05-19T09:55:16.801Z,97735.50
2023-05-19T09:57:46.299Z,97734.59
2023-05-19T10:00:17.525Z,97738.97
2023-05-19T10:02:46.345Z,97746.09
2023-05-19T10:05:17.248Z,97730.88
2023-05-19T10:07:48.650Z,97734.38
2023-05-19T10:10:16.864Z,97734.38
2023-05-19T10:12:45.028Z,97735.25
2023-05-19T10:15:13.687Z,97725.41
2023-05-19T10:17:44.006Z,97723.59
2023-05-19T10:20:14.128Z,97713.69
2023-05-19T10:22:42.286Z,97720.72
2023-05-19T10:25:11.249Z,97722.53
2023-05-19T10:27:41.350Z,97721.59
2023-05-19T10:30:13.233Z,97710.84
2023-05-19T10:32:44.613Z,97718.81
2023-05-19T10:35:29.958Z,97716.03
2023-05-19T10:38:00.232Z,97714.31
2023-05-19T10:40:29.300Z,97713.34
2023-05-19T10:43:12.908Z,97715.97
2023-05-19T10:45:43.453Z,97716.91
2023-05-19T10:48:15.164Z,97712.41
2023-05-19T10:50:45.122Z,97707.03
2023-05-19T10:53:18.142Z,97710.59
2023-05-19T10:55:47.353Z,97715.00
2023-05-19T10:58:15.602Z,97711.44
2023-05-19T11:00:43.673Z,97712.22
2023-05-19T11:03:16.261Z,97715.66
2023-05-19T11:05:45.762Z,97710.22
2023-05-19T11:08:13.928Z,97709.16
2023-05-19T11:10:44.861Z,97701.03
2023-05-19T11:13:20.376Z,97704.50
2023-05-19T11:15:49.894Z,97695.47
2023-05-19T11:18:19.588Z,97702.59
2023-05-19T11:20:47.687Z,97704.41
2023-05-19T11:23:18.047Z,97701.72
2023-05-19T11:25:47.893Z,97702.59
2023-05-19T11:28:17.364Z,97693.66
2023-05-19T11:30:46.532Z,97692.69
2023-05-19T11:33:14.786Z,97691.75
2023-05-19T11:35:44.230Z,97687.31
2023-05-19T11:38:12.288Z,97690.88
2023-05-19T11:40:40.642Z,97685.41
2023-05-19T11:43:08.733Z,97684.47
2023-05-19T11:45:36.924Z,97676.31
2023-05-19T11:48:05.657Z,97673.63
2023-05-19T11:50:33.713Z,97667.31
2023-05-19T11:53:03.143Z,97668.16
2023-05-19T11:55:31.758Z,97664.53
2023-05-19T12:00:31.640Z,97664.44
2023-05-19T12:03:00.102Z,97667.13
2023-05-19T12:05:28.962Z,97660.09
2023-05-19T12:07:56.990Z,97645.91
2023-05-19T12:10:26.538Z,97662.03
2023-05-19T12:12:54.714Z,97651.28
2023-05-19T12:15:22.888Z,97651.28
2023-05-19T12:17:51.378Z,97655.72
2023-05-19T12:20:19.592Z,97647.66
2023-05-19T12:22:47.734Z,97644.00
2023-05-19T12:25:16.598Z,97644.00
2023-05-19T12:27:46.069Z,97648.31
2023-05-19T12:30:14.563Z,97634.78
2023-05-19T12:32:42.725Z,97639.22
2023-05-19T12:35:11.697Z,97639.22
2023-05-19T12:37:42.363Z,97637.31
2023-05-19T12:40:11.711Z,97636.28
2023-05-19T12:42:39.726Z,97632.63
2023-05-19T12:45:09.919Z,97633.38
2023-05-19T12:47:38.065Z,97636.06
2023-05-19T12:50:08.098Z,97630.59
2023-05-19T12:52:43.238Z,97628.78
2023-05-19T12:55:12.234Z,97628.69
2023-05-19T12:57:41.472Z,97631.31
2023-05-19T13:00:20.800Z,97628.56
2023-05-19T13:03:02.222Z,97622.19
2023-05-19T13:05:31.104Z,97624.88
2023-05-19T13:07:59.573Z,97618.56
2023-05-19T13:10:28.166Z,97625.75
2023-05-19T13:12:56.452Z,97624.81
2023-05-19T13:15:27.204Z,97622.97
2023-05-19T13:17:55.550Z,97632.88
2023-05-19T13:20:24.686Z,97623.06
2023-05-19T13:22:54.584Z,97632.94
2023-05-19T13:25:22.747Z,97632.09
2023-05-19T13:27:51.094Z,97626.78
2023-05-19T13:30:19.472Z,97622.38
2023-05-19T13:32:49.082Z,97626.00
2023-05-19T13:35:17.134Z,97621.59
2023-05-19T13:37:45.216Z,97628.00
2023-05-19T13:40:14.387Z,97618.25
2023-05-19T13:42:42.707Z,97614.69
2023-05-19T13:45:11.276Z,97617.28
2023-05-19T13:47:39.412Z,97611.91
2023-05-19T13:50:09.509Z,97601.16
2023-05-19T13:52:37.540Z,97604.72
2023-05-19T13:55:07.117Z,97603.84
2023-05-19T13:57:35.408Z,97610.09
2023-05-19T14:00:04.682Z,97603.84
2023-05-19T14:02:42.590Z,97601.16
2023-05-19T14:05:12.382Z,97601.16
2023-05-19T14:07:40.588Z,97598.47
2023-05-19T14:10:09.653Z,97607.41
2023-05-19T14:12:55.088Z,97605.66
2023-05-19T14:15:25.867Z,97604.81
2023-05-19T14:17:54.157Z,97612.00
2023-05-19T14:20:23.553Z,97607.50
2023-05-19T14:22:51.628Z,97612.88
2023-05-19T14:25:19.835Z,97616.41
2023-05-19T14:27:47.906Z,97619.09
2023-05-19T14:30:15.915Z,97626.31
2023-05-19T14:32:43.995Z,97621.88
2023-05-19T14:35:12.327Z,97630.81
2023-05-19T14:37:41.781Z,97625.53
2023-05-19T14:40:10.751Z,97632.72
2023-05-19T14:42:38.811Z,97635.31
2023-05-19T14:45:07.788Z,97630.81
2023-05-19T14:47:35.923Z,97630.91
2023-05-19T14:50:04.001Z,97633.50
2023-05-19T14:52:32.088Z,97630.81
2023-05-19T14:55:01.583Z,97621.00
2023-05-19T14:57:29.691Z,97629.06
2023-05-19T14:59:57.736Z,97628.13
2023-05-19T15:02:27.467Z,97626.38
2023-05-19T15:04:56.687Z,97622.91
2023-05-19T15:07:24.820Z,97622.16
2023-05-19T15:09:52.901Z,97607.88
2023-05-19T15:12:22.388Z,97607.88
2023-05-19T15:14:50.474Z,97600.66
2023-05-19T15:17:18.534Z,97596.16
2023-05-19T15:19:46.722Z,97600.66
2023-05-19T15:22:14.863Z,97600.66
2023-05-19T15:24:42.879Z,97607.88
2023-05-19T15:27:11.135Z,97606.03
2023-05-19T15:29:40.595Z,97607.00
2023-05-19T15:32:09.731Z,97596.16
2023-05-19T15:34:37.835Z,97609.50
2023-05-19T15:37:06.274Z,97610.34
2023-05-19T15:39:34.982Z,97600.50
2023-05-19T15:42:03.071Z,97604.88
2023-05-19T15:44:31.401Z,97601.25
2023-05-19T15:47:00.940Z,97597.69
2023-05-19T15:49:28.995Z,97606.63
2023-05-19T15:51:57.016Z,97598.56
2023-05-19T15:54:25.290Z,97603.94
2023-05-19T15:56:53.305Z,97593.31
2023-05-19T15:59:21.334Z,97598.69
2023-05-19T16:01:52.050Z,97593.19
2023-05-19T16:04:22.365Z,97592.44
2023-05-19T16:06:50.573Z,97594.25
2023-05-19T16:09:18.651Z,97586.28
2023-05-19T16:11:46.676Z,97596.16
2023-05-19T16:14:14.712Z,97590.88
2023-05-19T16:16:44.605Z,97591.84
2023-05-19T16:19:12.912Z,97595.50
2023-05-19T16:21:42.403Z,97595.50
2023-05-19T16:24:10.502Z,97598.28
2023-05-19T16:26:38.505Z,97597.41
2023-05-19T16:29:06.592Z,97597.41
2023-05-19T16:31:34.681Z,97592.97
2023-05-19T16:34:02.980Z,97595.75
2023-05-19T16:36:31.916Z,97595.75
2023-05-19T16:39:01.369Z,97592.19
2023-05-19T16:41:29.385Z,97589.53
2023-05-19T16:43:57.487Z,97588.75
2023-05-19T16:46:25.604Z,97585.22
2023-05-19T16:48:53.760Z,97580.78
2023-05-19T16:51:22.126Z,97579.91
2023-05-19T16:53:50.272Z,97571.97
2023-05-19T16:56:19.689Z,97571.09
2023-05-19T16:58:49.004Z,97576.47
2023-05-19T17:01:17.487Z,97572.06
2023-05-19T17:03:45.666Z,97569.38
2023-05-19T17:06:13.754Z,97564.94
2023-05-19T17:08:41.800Z,97567.63
2023-05-19T17:11:09.968Z,97559.69
2023-05-19T17:13:39.406Z,97565.06
2023-05-19T17:16:07.781Z,97561.50
2023-05-19T17:18:35.879Z,97562.47
2023-05-19T17:21:05.347Z,97564.19
2023-05-19T17:23:33.523Z,97566.03
2023-05-19T17:26:01.870Z,97557.97
2023-05-19T17:28:30.088Z,97557.97
2023-05-19T17:30:59.508Z,97554.53
2023-05-19T17:33:27.626Z,97554.31
2023-05-19T17:35:55.965Z,97554.22
2023-05-19T17:38:24.064Z,97549.63
2023-05-19T17:40:53.560Z,97553.06
2023-05-19T17:43:21.694Z,97549.44
2023-05-19T17:45:49.717Z,97552.91
2023-05-19T17:48:19.220Z,97553.78
2023-05-19T17:50:47.952Z,97552.81
2023-05-19T17:53:16.342Z,97550.97
2023-05-19T17:55:45.512Z,97551.84
2023-05-19T17:58:14.008Z,97559.81
2023-05-19T18:00:42.551Z,97559.72
2023-05-19T18:03:11.491Z,97565.84
2023-05-19T18:05:43.355Z,97563.94
2023-05-19T18:08:11.507Z,97572.75
2023-05-19T18:10:40.869Z,97579.78
2023-05-19T18:13:09.891Z,97576.13
2023-05-19T18:15:38.165Z,97585.03
2023-05-19T18:18:07.794Z,97582.25
2023-05-19T18:20:37.833Z,97583.13
2023-05-19T18:23:07.461Z,97580.44
2023-05-19T18:25:36.233Z,97582.19
2023-05-19T18:28:04.278Z,97590.25
2023-05-19T18:30:32.488Z,97591.94
2023-05-19T18:33:03.671Z,97595.50
2023-05-19T18:35:32.042Z,97590.13
2023-05-19T18:38:00.176Z,97596.44
2023-05-19T18:40:29.626Z,97597.31
2023-05-19T18:42:57.730Z,97593.69
2023-05-19T18:45:25.757Z,97596.66
2023-05-19T18:47:53.848Z,97601.34
2023-05-19T18:50:22.141Z,97616.59
2023-05-19T18:52:50.214Z,97614.78
2023-05-19T18:55:18.464Z,97615.63
2023-05-19T18:57:47.894Z,97615.56
2023-05-19T19:00:16.926Z,97613.66
2023-05-19T19:02:44.991Z,97619.84
2023-05-19T19:05:13.929Z,97613.53
2023-05-19T19:07:42.195Z,97624.28
2023-05-19T19:10:10.716Z,97626.97
2023-05-19T19:12:38.981Z,97631.47
2023-05-19T19:15:09.530Z,97631.38
2023-05-19T19:17:37.795Z,97640.31
2023-05-19T19:20:06.645Z,97641.19
2023-05-19T19:22:34.785Z,97630.44
2023-05-19T19:25:02.785Z,97630.44
2023-05-19T19:27:31.505Z,97639.53
2023-05-19T19:29:59.560Z,97632.50
2023-05-19T19:32:31.403Z,97641.44
2023-05-19T19:34:59.566Z,97638.75
2023-05-19T19:37:27.574Z,97647.78
2023-05-19T19:39:55.665Z,97652.28
2023-05-19T19:42:23.730Z,97654.09
2023-05-19T19:44:55.563Z,97650.53
2023-05-19T19:47:23.741Z,97655.91
2023-05-19T19:49:53.197Z,97658.59
2023-05-19T19:52:21.221Z,97660.44
2023-05-19T19:54:49.315Z,97662.25
2023-05-19T19:57:17.784Z,97670.31
2023-05-19T19:59:45.916Z,97664.06
2023-05-19T20:02:14.014Z,97660.50
2023-05-19T20:04:42.157Z,97656.13
2023-05-19T20:07:11.629Z,97664.94
2023-05-19T20:09:39.719Z,97665.88
2023-05-19T20:12:08.485Z,97668.56
2023-05-19T20:14:36.988Z,97677.59
2023-05-19T20:17:05.186Z,97665.13
2023-05-19T20:19:33.398Z,97672.22
2023-05-19T20:22:01.506Z,97681.22
2023-05-19T20:24:30.910Z,97682.09
2023-05-19T20:26:58.977Z,97675.84
2023-05-19T20:29:27.282Z,97683.06
2023-05-19T20:31:56.589Z,97681.31
2023-05-19T20:34:25.939Z,97675.09
2023-05-19T20:36:54.070Z,97670.59
2023-05-19T20:39:22.258Z,97673.16
2023-05-19T20:41:51.703Z,97684.00
2023-05-19T20:44:19.789Z,97670.59
2023-05-19T20:46:47.840Z,97681.31
2023-05-19T20:49:15.871Z,97684.13
2023-05-19T20:51:43.943Z,97691.28
2023-05-19T20:54:12.029Z,97685.91
2023-05-19T20:56:40.100Z,97685.06
2023-05-19T20:59:09.532Z,97685.06
2023-05-19T21:01:37.760Z,97678.91
2023-05-19T21:04:07.807Z,97677.97
2023-05-19T21:06:36.089Z,97673.53
2023-05-19T21:09:06.778Z,97673.53
2023-05-19T21:11:34.986Z,97661.97
2023-05-19T21:14:04.176Z,97663.75
2023-05-19T21:16:34.115Z,97669.13
2023-05-19T21:19:02.556Z,97670.94
2023-05-19T21:21:31.686Z,97662.91
2023-05-19T21:23:59.798Z,97670.94
2023-05-19T21:26:28.281Z,97678.13
2023-05-19T21:28:56.341Z,97675.44
2023-05-19T21:31:24.410Z,97667.38
2023-05-19T21:33:53.887Z,97670.19
2023-05-19T21:36:22.969Z,97668.47
2023-05-19T21:38:51.075Z,97661.25
2023-05-19T21:41:19.151Z,97661.25
2023-05-19T21:43:47.297Z,97663.09
2023-05-19T21:46:15.444Z,97654.16
2023-05-19T21:48:43.555Z,97660.47
2023-05-19T21:51:12.990Z,97655.09
2023-05-19T21:53:41.005Z,97657.72
2023-05-19T21:56:09.118Z,97655.97
2023-05-19T21:58:37.165Z,97667.69
2023-05-19T22:01:05.626Z,97670.44
2023-05-19T22:03:33.753Z,97669.50
2023-05-19T22:06:01.844Z,97661.53
2023-05-19T22:08:31.287Z,97658.75
2023-05-19T22:10:59.448Z,97665.94
2023-05-19T22:13:27.566Z,97670.53
2023-05-19T22:15:56.078Z,97665.16
2023-05-19T22:18:24.266Z,97653.56
2023-05-19T22:20:52.352Z,97654.53
2023-05-19T22:23:20.932Z,97658.94
2023-05-19T22:25:50.397Z,97647.34
2023-05-19T22:28:18.459Z,97645.50
2023-05-19T22:30:46.711Z,97641.09
2023-05-19T22:33:15.066Z,97636.66
2023-05-19T22:35:43.098Z,97637.53
2023-05-19T22:38:11.841Z,97643.78
2023-05-19T22:40:39.962Z,97655.41
2023-05-19T22:43:09.372Z,97647.34
2023-05-19T22:45:37.755Z,97647.41
2023-05-19T22:48:06.527Z,97644.72
2023-05-19T22:50:34.646Z,97655.47
2023-05-19T22:53:02.728Z,97654.63
2023-05-19T22:55:30.887Z,97635.84
2023-05-19T22:57:58.968Z,97627.78
2023-05-19T23:00:28.409Z,97632.28
2023-05-19T23:02:58.264Z,97629.69
2023-05-19T23:05:26.478Z,97628.81
2023-05-19T23:07:54.654Z,97629.69
2023-05-19T23:10:22.742Z,97635.91
2023-05-19T23:12:51.566Z,97630.63
2023-05-19T23:15:19.680Z,97630.63
2023-05-19T23:17:49.197Z,97624.38
2023-05-19T23:20:17.332Z,97623.56
2023-05-19T23:22:45.599Z,97621.63
2023-05-19T23:25:13.658Z,97621.69
2023-05-19T23:27:41.968Z,97617.31
2023-05-19T23:30:10.667Z,97621.81
2023-05-19T23:32:38.747Z,97628.03
2023-05-19T23:35:15.513Z,97634.19
2023-05-19T23:37:43.597Z,97621.69
2023-05-19T23:40:12.406Z,97616.28
2023-05-19T23:42:40.553Z,97607.34
2023-05-19T23:45:09.655Z,97616.34
2023-05-19T23:47:37.906Z,97616.34
2023-05-19T23:50:06.447Z,97614.63
2023-05-19T23:52:35.906Z,97620.94
2023-05-19T23:55:03.984Z,97615.56
2023-05-19T23:57:32.049Z,97594.09
